Time;durP1;ratioP1;P1;durP2;ratioP2;P2;SDS_P1;SDS_P2;PMS_P1;PMS_P2;Temp;Humidity;BMP_temperature;BMP_pressure;BME280_temperature;BME280_humidity;BME280_pressure;Samples;Min_cycle;Max_cycle;Signal;HPM_P1;HPM_P2
2021/03/03 00:01:59;;;;;;;67.00;29.40;;;2.50;99.90;;;;;;4962401;28;20693;-88
2021/03/03 00:04:26;;;;;;;55.90;25.63;;;2.70;99.90;;;;;;4978145;28;20225;-88
2021/03/03 00:06:51;;;;;;;51.47;24.07;;;2.40;99.90;;;;;;4946036;28;20216;-88
2021/03/03 00:09:17;;;;;;;46.03;19.77;;;2.10;99.90;;;;;;4995497;28;20210;-88
2021/03/03 00:11:43;;;;;;;53.93;23.53;;;2.10;99.90;;;;;;4977432;28;20252;-88
2021/03/03 00:14:08;;;;;;;60.00;27.07;;;2.10;99.90;;;;;;4994656;28;20186;-88
2021/03/03 00:16:34;;;;;;;53.73;21.77;;;2.00;99.90;;;;;;4977699;28;20182;-87
2021/03/03 00:19:00;;;;;;;56.63;24.70;;;2.00;99.90;;;;;;4978329;28;20277;-87
2021/03/03 00:21:25;;;;;;;58.83;25.93;;;4.00;99.90;;;;;;4994857;28;20186;-87
2021/03/03 00:23:51;;;;;;;66.37;27.57;;;1.90;99.90;;;;;;4977946;28;20537;-88
2021/03/03 00:26:16;;;;;;;58.80;26.33;;;3.00;99.90;;;;;;4995650;28;20178;-88
2021/03/03 00:28:43;;;;;;;55.63;26.57;;;2.10;99.90;;;;;;4977805;28;20187;-88
2021/03/03 00:31:08;;;;;;;58.10;26.70;;;1.90;99.90;;;;;;4995041;28;20181;-88
2021/03/03 00:33:34;;;;;;;59.10;27.60;;;1.90;99.90;;;;;;4994505;28;20178;-88
2021/03/03 00:36:00;;;;;;;57.97;25.37;;;3.90;99.90;;;;;;4994752;28;20178;-88
2021/03/03 00:38:25;;;;;;;66.00;27.70;;;1.90;99.90;;;;;;4977563;28;20580;-88
2021/03/03 00:40:52;;;;;;;53.87;25.53;;;1.90;99.90;;;;;;4945019;28;20196;-88
2021/03/03 00:43:18;;;;;;;48.47;23.47;;;1.80;99.90;;;;;;4977770;28;20177;-88
2021/03/03 00:45:43;;;;;;;55.60;24.57;;;3.20;99.90;;;;;;4977384;28;20624;-87
2021/03/03 00:48:09;;;;;;;58.83;26.27;;;3.60;99.90;;;;;;4977609;28;20539;-87
2021/03/03 00:50:35;;;;;;;56.30;25.47;;;1.70;99.90;;;;;;4961174;28;20657;-87
2021/03/03 00:53:00;;;;;;;56.97;25.27;;;1.70;99.90;;;;;;4945458;28;20698;-87
2021/03/03 00:55:26;;;;;;;58.97;25.90;;;2.40;99.90;;;;;;4961479;28;20190;-88
2021/03/03 00:57:52;;;;;;;59.00;24.87;;;2.60;99.90;;;;;;4977504;28;20193;-88
2021/03/03 01:00:18;;;;;;;60.13;26.37;;;1.60;99.90;;;;;;4994330;28;20627;-88
2021/03/03 01:02:44;;;;;;;56.87;25.60;;;1.60;99.90;;;;;;4993999;28;20548;-88
2021/03/03 01:05:10;;;;;;;55.70;26.23;;;1.50;99.90;;;;;;4961143;28;20273;-88
2021/03/03 01:07:35;;;;;;;56.37;25.53;;;1.50;99.90;;;;;;4977121;28;20194;-88
2021/03/03 01:10:01;;;;;;;67.07;27.57;;;2.70;99.90;;;;;;4961082;28;20192;-88
2021/03/03 01:12:27;;;;;;;63.03;26.97;;;1.40;99.90;;;;;;4994312;28;20327;-88
2021/03/03 01:14:52;;;;;;;55.13;24.73;;;2.20;99.90;;;;;;4994192;28;20749;-88
2021/03/03 01:17:18;;;;;;;69.77;29.17;;;3.10;99.90;;;;;;4976921;28;20185;-88
2021/03/03 01:19:44;;;;;;;62.27;26.60;;;3.00;99.90;;;;;;4976785;28;20178;-88
2021/03/03 01:22:09;;;;;;;65.33;27.23;;;1.30;99.90;;;;;;4977221;28;20248;-89
2021/03/03 01:24:35;;;;;;;58.60;25.83;;;3.80;99.90;;;;;;4975802;28;20190;-88
2021/03/03 01:27:00;;;;;;;70.40;31.00;;;2.60;99.90;;;;;;4976835;28;20244;-88
2021/03/03 01:29:26;;;;;;;64.53;28.60;;;1.30;99.90;;;;;;4977106;28;20244;-88
2021/03/03 01:31:52;;;;;;;64.20;28.07;;;1.30;99.90;;;;;;4993885;28;20233;-89
2021/03/03 01:34:17;;;;;;;64.33;28.73;;;2.40;99.90;;;;;;4977088;28;20193;-88
2021/03/03 01:36:43;;;;;;;76.10;29.60;;;2.30;99.90;;;;;;4976733;28;20185;-88
2021/03/03 01:39:09;;;;;;;80.57;31.40;;;2.70;99.90;;;;;;4960821;28;20188;-88
2021/03/03 01:41:34;;;;;;;75.50;31.50;;;3.10;99.90;;;;;;4979977;28;20257;-87
2021/03/03 01:44:00;;;;;;;82.97;33.47;;;2.30;99.90;;;;;;4992660;28;20177;-88
2021/03/03 01:46:25;;;;;;;78.73;33.17;;;1.30;99.90;;;;;;4976282;28;20191;-87
2021/03/03 01:48:51;;;;;;;85.20;33.27;;;3.00;99.90;;;;;;4992174;28;20599;-88
2021/03/03 01:51:18;;;;;;;76.87;31.00;;;1.30;99.90;;;;;;4992611;28;20547;-89
2021/03/03 01:53:44;;;;;;;76.47;29.67;;;2.60;99.90;;;;;;4993429;28;20681;-89
2021/03/03 01:56:11;;;;;;;82.00;31.47;;;1.30;99.90;;;;;;4976537;28;20280;-88
2021/03/03 01:58:37;;;;;;;84.63;31.53;;;1.20;99.90;;;;;;4992427;28;20574;-91
2021/03/03 02:01:03;;;;;;;85.70;32.83;;;3.70;99.90;;;;;;4992208;28;20185;-90
2021/03/03 02:03:29;;;;;;;85.90;31.07;;;3.40;99.90;;;;;;4976369;28;20196;-90
2021/03/03 02:06:01;;;;;;;75.67;30.50;;;3.70;99.90;;;;;;4992222;28;20552;-90
2021/03/03 02:08:35;;;;;;;70.63;30.57;;;2.30;99.90;;;;;;4993476;28;20172;-90
2021/03/03 02:11:49;;;;;;;80.83;31.33;;;1.30;99.90;;;;;;4992043;28;20185;-90
2021/03/03 02:14:23;;;;;;;87.57;33.47;;;1.30;99.90;;;;;;4952421;29;20190;-90
2021/03/03 02:16:50;;;;;;;88.37;33.47;;;1.30;99.90;;;;;;4999298;28;20263;-90
2021/03/03 02:19:21;;;;;;;80.70;32.47;;;2.90;99.90;;;;;;4992390;28;20174;-90
2021/03/03 02:22:12;;;;;;;84.07;30.80;;;1.70;99.90;;;;;;4992076;28;20178;-89
2021/03/03 02:24:56;;;;;;;85.50;31.17;;;1.20;99.90;;;;;;4993288;28;20208;-89
2021/03/03 02:27:23;;;;;;;84.00;31.50;;;3.40;99.90;;;;;;4994043;28;20547;-90
2021/03/03 02:29:50;;;;;;;76.53;30.70;;;1.20;99.90;;;;;;4975737;28;20194;-90
2021/03/03 02:32:18;;;;;;;80.90;30.17;;;2.10;99.90;;;;;;4992236;28;20609;-89
2021/03/03 02:34:45;;;;;;;82.73;31.47;;;3.10;99.90;;;;;;4993259;28;20213;-88
2021/03/03 02:37:13;;;;;;;74.20;28.03;;;3.30;99.90;;;;;;4994498;28;20182;-89
2021/03/03 02:39:39;;;;;;;75.87;28.37;;;1.10;99.90;;;;;;4995996;28;20589;-90
2021/03/03 02:42:07;;;;;;;82.73;30.03;;;1.50;99.90;;;;;;4995353;28;20253;-90
2021/03/03 02:44:34;;;;;;;71.53;29.23;;;1.10;99.90;;;;;;4997337;28;20185;-90
2021/03/03 02:47:00;;;;;;;78.33;28.77;;;2.10;99.90;;;;;;4996847;28;20178;-90
2021/03/03 02:49:27;;;;;;;76.00;28.03;;;1.10;99.90;;;;;;4995949;28;20316;-90
2021/03/03 02:51:53;;;;;;;66.53;27.37;;;1.20;99.90;;;;;;4996567;28;20217;-90
2021/03/03 02:54:19;;;;;;;78.30;30.80;;;2.00;99.90;;;;;;4995920;28;20654;-89
2021/03/03 02:56:46;;;;;;;79.73;31.37;;;1.40;99.90;;;;;;4979516;28;20193;-89
2021/03/03 02:59:35;;;;;;;79.33;32.07;;;2.50;99.90;;;;;;4995545;28;20242;-89
2021/03/03 03:02:04;;;;;;;76.83;29.63;;;-0.10;99.90;;;;;;4995549;28;20176;-90
2021/03/03 03:04:35;;;;;;;71.33;29.27;;;1.50;99.90;;;;;;4996031;28;20181;-89
2021/03/03 03:07:08;;;;;;;81.90;30.10;;;3.10;99.90;;;;;;4995315;28;20169;-89
2021/03/03 03:09:37;;;;;;;82.43;30.87;;;3.20;99.90;;;;;;4995712;28;20194;-89
2021/03/03 03:12:03;;;;;;;83.90;32.03;;;1.00;99.90;;;;;;4995224;28;20239;-89
2021/03/03 03:14:29;;;;;;;85.93;31.30;;;0.90;99.90;;;;;;4996878;28;20618;-89
2021/03/03 03:16:56;;;;;;;82.80;30.83;;;2.10;99.90;;;;;;4996527;28;20186;-89
2021/03/03 03:19:27;;;;;;;78.07;29.67;;;0.90;99.90;;;;;;4995333;28;20185;-89
2021/03/03 03:21:53;;;;;;;85.93;29.73;;;0.80;99.90;;;;;;4996458;28;20182;-88
2021/03/03 03:24:21;;;;;;;82.17;31.63;;;0.90;99.90;;;;;;4995492;28;20186;-91
2021/03/03 03:26:47;;;;;;;88.07;32.70;;;2.70;99.90;;;;;;4995212;28;20181;-90
2021/03/03 03:29:14;;;;;;;105.90;32.47;;;2.60;99.90;;;;;;4994967;28;20186;-89
2021/03/03 03:31:41;;;;;;;92.53;34.10;;;1.70;99.90;;;;;;4995057;28;20277;-89
2021/03/03 03:34:09;;;;;;;97.93;34.90;;;2.80;99.90;;;;;;4995038;28;20232;-90
2021/03/03 03:36:36;;;;;;;95.87;35.10;;;2.90;99.90;;;;;;4995262;28;20178;-90
2021/03/03 03:39:06;;;;;;;101.10;34.77;;;1.40;99.90;;;;;;4996785;28;20173;-89
2021/03/03 03:41:33;;;;;;;98.30;34.83;;;0.90;99.90;;;;;;4996141;28;20261;-88
2021/03/03 03:44:00;;;;;;;94.23;35.47;;;0.90;99.90;;;;;;4979069;28;20552;-89
2021/03/03 03:46:27;;;;;;;91.87;34.13;;;2.10;99.90;;;;;;5001601;28;20656;-85
2021/03/03 03:48:53;;;;;;;95.60;36.37;;;2.90;99.90;;;;;;4997591;28;20575;-85
2021/03/03 03:51:19;;;;;;;110.07;35.23;;;1.00;99.90;;;;;;4996728;28;20196;-86
2021/03/03 03:53:45;;;;;;;97.20;35.77;;;2.00;99.90;;;;;;4964749;28;20552;-85
2021/03/03 03:56:11;;;;;;;98.27;35.20;;;1.50;99.90;;;;;;4978189;28;20189;-88
2021/03/03 03:58:37;;;;;;;100.93;35.70;;;3.20;99.90;;;;;;4979299;28;20227;-91
2021/03/03 04:01:04;;;;;;;96.20;35.10;;;1.00;99.90;;;;;;4968004;28;20209;-86
2021/03/03 04:03:33;;;;;;;108.50;37.27;;;1.90;99.90;;;;;;4977663;28;20245;-86
2021/03/03 04:06:03;;;;;;;103.90;36.03;;;2.90;99.90;;;;;;4980647;28;20257;-85
2021/03/03 04:08:29;;;;;;;152.83;62.73;;;1.90;99.90;;;;;;4978962;28;20261;-85
2021/03/03 04:10:55;;;;;;;128.60;52.10;;;1.80;99.90;;;;;;4946543;28;20206;-87
2021/03/03 04:13:21;;;;;;;106.30;40.33;;;0.90;99.90;;;;;;4995126;28;20292;-87
2021/03/03 04:15:47;;;;;;;114.77;40.53;;;0.90;99.90;;;;;;4962120;28;20277;-87
2021/03/03 04:18:13;;;;;;;121.33;41.53;;;2.90;99.90;;;;;;4995117;28;20623;-87
2021/03/03 04:20:41;;;;;;;113.83;37.23;;;1.50;99.90;;;;;;4978314;28;20182;-88
2021/03/03 04:23:08;;;;;;;202.07;73.63;;;1.80;99.90;;;;;;4977739;28;20202;-87
2021/03/03 04:25:36;;;;;;;146.07;52.03;;;0.80;99.90;;;;;;4995371;28;20178;-87
2021/03/03 04:28:05;;;;;;;204.57;89.60;;;0.90;99.90;;;;;;4961797;28;20513;-87
2021/03/03 04:30:31;;;;;;;143.17;55.77;;;0.90;99.90;;;;;;4995411;28;20192;-88
2021/03/03 04:32:57;;;;;;;159.60;61.50;;;1.20;99.90;;;;;;4995182;28;20197;-88
2021/03/03 04:35:23;;;;;;;140.60;48.33;;;0.80;99.90;;;;;;4961070;28;20337;-87
2021/03/03 04:37:49;;;;;;;124.83;42.80;;;1.40;99.90;;;;;;4961506;28;20236;-88
2021/03/03 04:40:15;;;;;;;122.93;42.03;;;2.30;99.90;;;;;;4977185;28;20244;-88
2021/03/03 04:42:41;;;;;;;127.83;43.00;;;0.80;99.90;;;;;;4957003;28;20234;-87
2021/03/03 04:45:08;;;;;;;104.27;37.70;;;0.80;99.90;;;;;;4993161;28;20280;-87
2021/03/03 04:47:34;;;;;;;99.63;39.20;;;0.80;99.90;;;;;;4993891;28;20236;-87
2021/03/03 04:50:00;;;;;;;182.57;79.67;;;0.80;99.90;;;;;;4993594;28;20585;-87
2021/03/03 04:52:26;;;;;;;127.77;51.97;;;0.80;99.90;;;;;;4994318;28;20264;-86
2021/03/03 04:54:52;;;;;;;105.77;36.97;;;0.80;99.90;;;;;;4994962;28;20188;-86
2021/03/03 04:57:17;;;;;;;96.60;33.53;;;0.70;99.90;;;;;;4994675;28;20220;-86
2021/03/03 04:59:43;;;;;;;100.90;36.50;;;1.70;99.90;;;;;;4961044;28;20726;-87
2021/03/03 05:02:09;;;;;;;85.67;29.77;;;0.60;99.90;;;;;;4976733;28;20250;-87
2021/03/03 05:04:34;;;;;;;88.00;32.70;;;0.60;99.90;;;;;;4977059;28;20244;-87
2021/03/03 05:07:00;;;;;;;82.73;29.10;;;2.00;99.90;;;;;;4961097;28;20272;-86
2021/03/03 05:09:26;;;;;;;94.57;29.10;;;0.50;99.90;;;;;;4992749;28;20193;-86
2021/03/03 05:11:51;;;;;;;102.27;35.73;;;2.60;99.90;;;;;;4994319;28;20205;-87
2021/03/03 05:14:17;;;;;;;99.77;33.57;;;1.50;99.90;;;;;;4992783;28;20182;-86
2021/03/03 05:16:43;;;;;;;95.07;36.33;;;2.80;99.90;;;;;;4994311;28;20638;-86
2021/03/03 05:19:08;;;;;;;95.77;34.77;;;2.20;99.90;;;;;;4992671;28;20185;-86
2021/03/03 05:21:35;;;;;;;101.77;28.83;;;1.00;99.90;;;;;;4993021;28;20244;-86
2021/03/03 05:24:00;;;;;;;89.87;29.83;;;0.80;99.90;;;;;;4992574;28;20185;-86
2021/03/03 05:26:26;;;;;;;86.47;29.47;;;0.80;99.90;;;;;;4976420;28;20193;-86
2021/03/03 05:28:52;;;;;;;92.17;28.67;;;0.80;99.90;;;;;;4992896;28;20199;-87
2021/03/03 05:31:17;;;;;;;86.80;28.63;;;2.20;99.90;;;;;;4992291;28;20536;-87
2021/03/03 05:33:43;;;;;;;83.97;29.57;;;0.30;99.90;;;;;;4992468;28;20181;-86
2021/03/03 05:36:10;;;;;;;115.20;28.67;;;0.20;99.90;;;;;;4976673;28;20544;-86
2021/03/03 05:38:39;;;;;;;97.90;28.97;;;2.10;99.90;;;;;;4992554;28;20182;-87
2021/03/03 05:41:05;;;;;;;98.87;29.93;;;0.30;99.90;;;;;;4993831;28;20182;-87
2021/03/03 05:43:32;;;;;;;92.70;31.33;;;0.70;99.90;;;;;;4991337;28;20199;-86
2021/03/03 05:45:59;;;;;;;111.60;34.07;;;0.30;99.90;;;;;;4983476;28;20236;-87
2021/03/03 05:48:30;;;;;;;92.67;31.47;;;0.40;99.90;;;;;;4973731;28;20194;-86
2021/03/03 05:51:04;;;;;;;96.37;30.83;;;0.40;99.90;;;;;;4963235;28;20215;-87
2021/03/03 05:53:31;;;;;;;90.87;28.77;;;0.30;99.90;;;;;;4965272;28;20224;-87
2021/03/03 05:55:58;;;;;;;85.20;27.43;;;0.40;99.90;;;;;;4984530;28;20214;-87
2021/03/03 05:58:27;;;;;;;83.67;27.80;;;2.50;99.90;;;;;;4972227;28;20255;-88
2021/03/03 06:00:56;;;;;;;92.30;29.30;;;1.60;99.90;;;;;;4992218;28;20186;-89
2021/03/03 06:03:26;;;;;;;87.07;30.63;;;2.40;99.90;;;;;;4973461;28;20217;-87
2021/03/03 06:05:53;;;;;;;90.33;30.23;;;2.20;99.90;;;;;;4990832;28;20188;-88
2021/03/03 06:08:21;;;;;;;77.27;27.70;;;0.40;99.90;;;;;;4975076;28;20196;-87
2021/03/03 06:10:47;;;;;;;80.67;27.03;;;0.80;99.90;;;;;;4960859;28;20178;-87
2021/03/03 06:13:13;;;;;;;83.10;28.30;;;1.40;99.90;;;;;;4985919;28;20215;-88
2021/03/03 06:15:40;;;;;;;84.63;27.60;;;0.80;99.90;;;;;;4973307;28;20193;-89
2021/03/03 06:18:07;;;;;;;78.30;25.57;;;0.10;99.90;;;;;;4977418;28;20193;-89
2021/03/03 06:20:39;;;;;;;74.93;25.00;;;0.10;99.90;;;;;;4994677;28;20274;-89
2021/03/03 06:23:16;;;;;;;71.80;23.83;;;0.60;99.90;;;;;;4995290;28;20635;-89
2021/03/03 06:25:43;;;;;;;67.07;20.20;;;0.20;99.90;;;;;;4977250;28;20197;-90
2021/03/03 06:28:10;;;;;;;70.67;23.83;;;0.80;99.90;;;;;;4945517;28;20186;-87
2021/03/03 06:30:36;;;;;;;57.80;21.80;;;1.50;99.90;;;;;;4981880;28;20182;-90
2021/03/03 06:33:05;;;;;;;83.13;33.63;;;0.00;99.90;;;;;;4977146;28;20216;-91
2021/03/03 06:35:34;;;;;;;88.93;34.47;;;0.10;99.90;;;;;;4975125;28;20272;-90
2021/03/03 06:37:59;;;;;;;72.83;32.90;;;0.50;99.90;;;;;;4995268;28;20189;-91
2021/03/03 06:40:25;;;;;;;66.47;27.13;;;0.20;99.90;;;;;;4968470;28;20191;-92
2021/03/03 06:42:51;;;;;;;68.03;23.57;;;1.10;99.90;;;;;;4985172;28;20236;-91
2021/03/03 06:45:27;;;;;;;60.60;21.40;;;1.20;99.90;;;;;;4973484;28;20194;-91
2021/03/03 06:47:53;;;;;;;55.57;21.20;;;0.10;99.90;;;;;;4991262;28;20172;-93
2021/03/03 06:50:19;;;;;;;56.03;19.77;;;2.90;99.90;;;;;;4984501;28;20180;-92
2021/03/03 06:52:45;;;;;;;59.33;22.17;;;0.10;99.90;;;;;;4980423;28;20282;-90
2021/03/03 06:55:13;;;;;;;57.63;20.80;;;1.90;99.90;;;;;;4984988;28;20248;-89
2021/03/03 06:57:42;;;;;;;56.23;20.13;;;0.60;99.90;;;;;;4983202;28;20265;-94
2021/03/03 07:00:09;;;;;;;63.70;19.90;;;0.20;99.90;;;;;;4991593;28;20263;-88
2021/03/03 07:02:37;;;;;;;70.87;23.10;;;0.30;99.90;;;;;;4987048;28;20248;-87
2021/03/03 07:05:03;;;;;;;76.37;27.60;;;2.30;99.90;;;;;;4981146;28;20191;-89
2021/03/03 07:07:29;;;;;;;66.17;25.13;;;0.30;99.90;;;;;;4990890;28;20240;-87
2021/03/03 07:09:59;;;;;;;60.50;21.93;;;2.40;99.90;;;;;;4993809;28;20181;-88
2021/03/03 07:12:30;;;;;;;54.07;23.43;;;2.80;99.90;;;;;;4992894;28;20789;-88
2021/03/03 07:15:03;;;;;;;67.13;24.70;;;0.50;99.90;;;;;;4991032;28;20186;-87
2021/03/03 07:17:37;;;;;;;72.53;25.10;;;0.70;99.90;;;;;;4987754;28;20217;-88
2021/03/03 07:20:08;;;;;;;64.03;23.97;;;0.20;99.90;;;;;;4984067;28;20178;-88
2021/03/03 07:22:40;;;;;;;67.53;21.63;;;0.40;99.90;;;;;;4990972;28;20193;-87
2021/03/03 07:25:11;;;;;;;62.60;22.20;;;0.20;99.90;;;;;;4992342;28;20247;-87
2021/03/03 07:27:38;;;;;;;59.87;22.50;;;0.40;99.90;;;;;;4992283;28;20227;-88
2021/03/03 07:30:12;;;;;;;65.83;22.70;;;0.10;99.90;;;;;;4994134;28;20276;-88
2021/03/03 07:32:39;;;;;;;70.17;24.57;;;-2.10;99.90;;;;;;4994008;28;20259;-88
2021/03/03 07:35:07;;;;;;;61.23;24.53;;;2.70;99.90;;;;;;4992640;28;20185;-88
2021/03/03 07:37:38;;;;;;;62.87;22.97;;;0.20;99.90;;;;;;4993721;28;20180;-88
2021/03/03 07:40:06;;;;;;;46.13;19.87;;;2.50;99.90;;;;;;4989622;28;20195;-89
2021/03/03 07:42:32;;;;;;;54.07;20.00;;;0.10;99.90;;;;;;4987692;28;20249;-90
2021/03/03 07:45:13;;;;;;;48.90;18.90;;;0.10;99.90;;;;;;4992611;28;20185;-88
2021/03/03 07:47:41;;;;;;;51.53;21.40;;;0.00;99.90;;;;;;4975563;28;20671;-89
2021/03/03 07:50:17;;;;;;;58.83;21.13;;;2.40;99.90;;;;;;4974358;28;20186;-89
2021/03/03 07:52:45;;;;;;;63.33;21.77;;;0.20;99.90;;;;;;4977009;28;20202;-88
2021/03/03 07:55:12;;;;;;;48.30;20.80;;;1.00;99.90;;;;;;4976782;28;20237;-89
2021/03/03 07:57:44;;;;;;;52.60;19.27;;;0.40;99.90;;;;;;4982153;28;20236;-87
2021/03/03 08:00:19;;;;;;;55.17;20.60;;;0.50;99.90;;;;;;4978113;28;20209;-88
2021/03/03 08:02:46;;;;;;;49.00;18.70;;;0.40;99.90;;;;;;4980231;28;20189;-88
2021/03/03 08:05:37;;;;;;;53.27;20.53;;;1.60;99.90;;;;;;4976731;28;20640;-89
2021/03/03 08:08:33;;;;;;;47.73;18.33;;;0.10;99.90;;;;;;4979746;28;20285;-88
2021/03/03 08:10:58;;;;;;;51.60;19.60;;;2.60;99.90;;;;;;4993730;28;20174;-90
2021/03/03 08:13:30;;;;;;;58.17;20.87;;;0.20;99.90;;;;;;4992300;28;20222;-90
2021/03/03 08:15:58;;;;;;;51.63;19.10;;;0.60;99.90;;;;;;4991720;28;20189;-88
2021/03/03 08:18:30;;;;;;;61.80;22.37;;;0.30;99.90;;;;;;4992742;28;20266;-90
2021/03/03 08:21:07;;;;;;;59.00;21.20;;;0.40;99.90;;;;;;4993932;28;20170;-89
2021/03/03 08:23:33;;;;;;;53.57;22.37;;;0.40;99.90;;;;;;4993792;28;20661;-89
2021/03/03 08:26:15;;;;;;;55.80;21.30;;;0.40;99.90;;;;;;4992070;28;20185;-90
2021/03/03 08:28:46;;;;;;;51.40;19.50;;;0.40;99.90;;;;;;4990469;28;20205;-90
2021/03/03 08:31:15;;;;;;;53.33;20.23;;;0.30;99.90;;;;;;4991354;28;20224;-88
2021/03/03 08:33:50;;;;;;;54.23;21.23;;;2.10;99.90;;;;;;4989460;28;20218;-89
2021/03/03 08:36:21;;;;;;;52.30;20.77;;;1.70;99.90;;;;;;4990114;28;20264;-88
2021/03/03 08:39:11;;;;;;;57.60;22.47;;;0.40;99.90;;;;;;4989985;28;20187;-88
2021/03/03 08:41:38;;;;;;;100.77;34.60;;;0.90;99.90;;;;;;4991434;28;20238;-88
2021/03/03 08:44:10;;;;;;;61.93;24.07;;;0.50;99.90;;;;;;4960271;28;20294;-89
2021/03/03 08:46:39;;;;;;;54.27;21.63;;;0.50;99.90;;;;;;4976378;28;20234;-89
2021/03/03 08:49:05;;;;;;;57.97;19.30;;;0.50;99.90;;;;;;4993542;28;20182;-89
2021/03/03 08:51:36;;;;;;;60.50;21.23;;;2.60;99.90;;;;;;4975822;28;20226;-89
2021/03/03 08:54:07;;;;;;;67.20;23.07;;;3.10;99.90;;;;;;4975454;28;20182;-88
2021/03/03 08:56:45;;;;;;;58.50;21.63;;;0.40;99.90;;;;;;4992680;28;20208;-89
2021/03/03 08:59:33;;;;;;;57.27;20.57;;;0.40;99.90;;;;;;4993413;28;20183;-89
2021/03/03 09:02:08;;;;;;;46.43;19.73;;;0.30;99.90;;;;;;4975422;28;20190;-89
2021/03/03 09:04:40;;;;;;;61.77;23.80;;;0.30;99.90;;;;;;4975863;28;20236;-90
2021/03/03 09:07:08;;;;;;;69.63;25.57;;;0.50;99.90;;;;;;4975619;28;20177;-90
2021/03/03 09:09:39;;;;;;;56.07;21.23;;;1.90;99.90;;;;;;4993139;28;20178;-90
2021/03/03 09:12:10;;;;;;;56.63;22.37;;;1.80;99.90;;;;;;4992392;28;20198;-90
2021/03/03 09:14:38;;;;;;;57.83;22.97;;;0.60;99.90;;;;;;4992892;28;20181;-91
2021/03/03 09:17:09;;;;;;;62.73;23.77;;;0.60;99.90;;;;;;4992369;28;20703;-90
2021/03/03 09:19:36;;;;;;;53.33;20.80;;;0.70;99.90;;;;;;4993142;28;20257;-90
2021/03/03 09:22:18;;;;;;;58.10;24.07;;;2.50;99.90;;;;;;4975348;28;20204;-89
2021/03/03 09:25:24;;;;;;;54.07;21.80;;;0.60;99.90;;;;;;4975246;28;20220;-90
2021/03/03 09:27:54;;;;;;;53.20;23.40;;;0.70;99.90;;;;;;4882291;29;20181;-90
2021/03/03 09:30:22;;;;;;;59.30;23.80;;;1.40;99.90;;;;;;4907808;29;20193;-89
2021/03/03 09:32:51;;;;;;;63.17;24.10;;;1.00;99.90;;;;;;4922036;28;20237;-91
2021/03/03 09:35:30;;;;;;;65.20;24.83;;;2.80;99.90;;;;;;4992684;28;20217;-90
2021/03/03 09:37:56;;;;;;;65.97;24.67;;;1.20;99.90;;;;;;4958697;28;20534;-90
2021/03/03 09:40:28;;;;;;;63.13;24.80;;;3.20;99.90;;;;;;4986191;28;20647;-90
2021/03/03 09:42:53;;;;;;;62.93;23.83;;;2.70;99.90;;;;;;4991712;28;20241;-90
2021/03/03 09:45:21;;;;;;;69.93;26.90;;;1.00;99.90;;;;;;4959931;28;20603;-90
2021/03/03 09:47:47;;;;;;;61.20;25.57;;;3.30;99.90;;;;;;4943944;28;20213;-89
2021/03/03 09:50:17;;;;;;;68.67;25.73;;;3.70;99.90;;;;;;4966898;28;20194;-90
2021/03/03 09:52:49;;;;;;;57.73;23.43;;;2.60;99.90;;;;;;4977469;28;20300;-90
2021/03/03 09:55:17;;;;;;;68.13;26.70;;;3.40;99.90;;;;;;4980104;28;20186;-87
2021/03/03 09:57:48;;;;;;;64.07;23.07;;;2.20;99.90;;;;;;4994409;28;20182;-86
2021/03/03 10:00:22;;;;;;;68.43;27.27;;;3.00;99.90;;;;;;4995940;28;20197;-86
2021/03/03 10:02:52;;;;;;;65.67;27.77;;;1.00;99.90;;;;;;4984200;28;20190;-87
2021/03/03 10:05:30;;;;;;;66.07;24.00;;;2.00;99.90;;;;;;4961328;28;20270;-91
2021/03/03 10:07:59;;;;;;;72.03;28.17;;;1.50;99.90;;;;;;4992601;28;20189;-87
2021/03/03 10:10:27;;;;;;;59.23;22.80;;;2.20;99.90;;;;;;4989253;28;20211;-89
2021/03/03 10:12:53;;;;;;;62.47;23.57;;;3.00;99.90;;;;;;4989383;28;20205;-86
2021/03/03 10:15:31;;;;;;;72.53;28.77;;;1.50;99.90;;;;;;4993557;28;20184;-87
2021/03/03 10:17:57;;;;;;;69.37;27.93;;;3.70;99.90;;;;;;4998039;28;20173;-92
2021/03/03 10:20:48;;;;;;;70.67;28.67;;;1.90;99.90;;;;;;4976561;28;20186;-90
2021/03/03 10:23:41;;;;;;;66.57;25.93;;;1.70;99.90;;;;;;4975544;28;20192;-91
2021/03/03 10:26:08;;;;;;;67.43;26.63;;;0.30;99.90;;;;;;4964062;28;20256;-91
2021/03/03 10:28:35;;;;;;;67.00;25.90;;;0.20;99.90;;;;;;4967404;28;20186;-90
2021/03/03 10:31:04;;;;;;;67.73;28.47;;;1.60;99.90;;;;;;4973069;28;20185;-88
2021/03/03 10:33:41;;;;;;;72.03;30.93;;;1.80;99.90;;;;;;4973950;28;20258;-94
2021/03/03 10:36:14;;;;;;;62.10;24.53;;;2.80;99.90;;;;;;4990864;28;20608;-86
2021/03/03 10:38:54;;;;;;;62.80;26.03;;;1.70;99.90;;;;;;4973815;28;20273;-89
2021/03/03 10:41:28;;;;;;;67.40;26.83;;;1.80;99.90;;;;;;4989207;28;20237;-90
2021/03/03 10:43:55;;;;;;;76.33;32.30;;;1.90;99.90;;;;;;4973896;28;20673;-90
2021/03/03 10:46:23;;;;;;;81.07;31.43;;;3.60;99.90;;;;;;4973471;28;20197;-92
2021/03/03 10:48:50;;;;;;;68.63;29.13;;;3.00;99.90;;;;;;4958454;28;20194;-90
2021/03/03 10:51:18;;;;;;;53.40;22.80;;;2.20;99.90;;;;;;4973609;28;20394;-87
2021/03/03 10:53:54;;;;;;;56.47;24.87;;;2.00;99.90;;;;;;4975966;28;20251;-87
2021/03/03 10:56:35;;;;;;;60.67;26.03;;;2.00;99.90;;;;;;4956672;28;20229;-89
2021/03/03 10:59:04;;;;;;;57.23;26.30;;;2.10;99.90;;;;;;4968686;28;20218;-88
2021/03/03 11:01:53;;;;;;;59.13;25.50;;;2.10;99.90;;;;;;4976699;28;20177;-89
2021/03/03 11:04:19;;;;;;;59.50;24.10;;;2.00;99.90;;;;;;4966151;28;20276;-90
2021/03/03 11:06:44;;;;;;;61.43;25.57;;;2.10;99.90;;;;;;4973983;28;20278;-89
2021/03/03 11:09:12;;;;;;;70.53;28.97;;;1.90;99.90;;;;;;4986979;28;20217;-90
2021/03/03 11:11:48;;;;;;;73.00;30.17;;;2.30;99.90;;;;;;4994704;28;20252;-90
2021/03/03 11:14:14;;;;;;;70.87;29.53;;;2.00;99.90;;;;;;4974949;28;20224;-89
2021/03/03 11:16:40;;;;;;;56.93;26.83;;;3.40;99.90;;;;;;4976903;28;20219;-90
2021/03/03 11:19:06;;;;;;;60.77;25.67;;;3.20;99.90;;;;;;4977101;28;20190;-88
2021/03/03 11:21:31;;;;;;;60.83;27.67;;;2.10;99.90;;;;;;4977017;28;20552;-89
2021/03/03 11:23:57;;;;;;;70.67;28.00;;;2.00;99.90;;;;;;4960955;28;20186;-89
2021/03/03 11:26:23;;;;;;;68.50;28.20;;;2.00;99.90;;;;;;4987152;28;20214;-89
2021/03/03 11:28:48;;;;;;;74.73;28.40;;;4.00;99.90;;;;;;4960381;28;20274;-90
2021/03/03 11:31:14;;;;;;;66.73;26.30;;;2.20;99.90;;;;;;4960226;28;20197;-90
2021/03/03 11:33:40;;;;;;;62.97;24.10;;;2.30;99.90;;;;;;4976653;28;20230;-89
2021/03/03 11:36:06;;;;;;;82.33;28.73;;;2.40;99.90;;;;;;4957589;28;20203;-88
2021/03/03 11:38:32;;;;;;;62.57;26.27;;;2.10;99.90;;;;;;4952180;28;20191;-88
2021/03/03 11:40:57;;;;;;;72.20;29.27;;;1.30;99.90;;;;;;4976400;28;20273;-89
2021/03/03 11:43:26;;;;;;;75.60;28.33;;;3.30;99.90;;;;;;4933927;28;20187;-88
2021/03/03 11:45:51;;;;;;;77.60;29.43;;;2.40;99.90;;;;;;4944800;28;20182;-92
2021/03/03 11:48:17;;;;;;;69.97;26.83;;;2.50;99.90;;;;;;4994407;28;20178;-89
2021/03/03 11:50:42;;;;;;;88.83;31.07;;;3.10;99.90;;;;;;4976457;28;20178;-88
2021/03/03 11:53:08;;;;;;;83.03;28.63;;;3.90;99.90;;;;;;4959494;28;20683;-86
2021/03/03 11:55:34;;;;;;;84.17;29.97;;;3.10;99.90;;;;;;4960058;28;20627;-86
2021/03/03 11:58:00;;;;;;;88.43;32.80;;;2.70;99.90;;;;;;4965549;28;20183;-87
2021/03/03 12:00:26;;;;;;;102.40;35.70;;;3.40;99.90;;;;;;4980912;28;20209;-89
2021/03/03 12:02:51;;;;;;;86.60;31.77;;;3.00;99.90;;;;;;4966655;28;20192;-87
2021/03/03 12:05:17;;;;;;;91.77;31.60;;;3.50;99.90;;;;;;4954439;28;20187;-90
2021/03/03 12:07:43;;;;;;;81.50;30.70;;;3.30;99.90;;;;;;4941312;28;20680;-87
2021/03/03 12:10:09;;;;;;;89.40;33.57;;;3.50;99.90;;;;;;4941307;28;20190;-88
2021/03/03 12:12:34;;;;;;;96.27;33.20;;;3.40;99.90;;;;;;4960161;28;20208;-87
2021/03/03 12:15:00;;;;;;;85.17;31.37;;;3.40;99.90;;;;;;4959480;28;20203;-86
2021/03/03 12:17:29;;;;;;;86.23;31.63;;;3.50;99.90;;;;;;4970108;28;20647;-88
2021/03/03 12:19:55;;;;;;;84.23;31.07;;;3.70;99.90;;;;;;4952249;28;20293;-88
2021/03/03 12:22:20;;;;;;;81.40;29.53;;;3.90;99.90;;;;;;4963251;28;20704;-87
2021/03/03 12:24:46;;;;;;;81.90;29.57;;;4.00;99.90;;;;;;4933655;28;20185;-87
2021/03/03 12:27:15;;;;;;;83.37;29.13;;;4.20;99.90;;;;;;4942722;28;20635;-88
2021/03/03 12:29:41;;;;;;;80.60;30.80;;;4.50;99.90;;;;;;4948679;28;20256;-87
2021/03/03 12:32:07;;;;;;;73.40;27.17;;;4.80;99.90;;;;;;4962933;28;20670;-88
2021/03/03 12:34:32;;;;;;;78.23;29.50;;;4.70;99.90;;;;;;4943177;28;20252;-83
2021/03/03 12:36:58;;;;;;;74.00;28.77;;;4.40;99.90;;;;;;4941719;28;20196;-86
2021/03/03 12:39:24;;;;;;;72.70;29.50;;;4.70;99.90;;;;;;4964352;28;20192;-85
2021/03/03 12:41:50;;;;;;;71.03;29.10;;;4.80;99.90;;;;;;4972429;28;20761;-85
2021/03/03 12:44:15;;;;;;;94.23;33.63;;;5.00;99.90;;;;;;4974122;28;20229;-85